Terminal Aerodrome Forecast
Issued by NWS

Home | Current Version | Previous Version | Text Only | Print | Product List | Glossary On
Versions: 1 2 3 4 5 6 7 8 9 10 11 12 13 14 15 16 17 18 19 20 21 22 23 24 25 26 27 28 29 30 31 32 33 34 35 36 37 38 39 40 41 42
000
FTUS46 KPQR 261336 AAA
TAFONP
TAF AMD
KONP 261336Z 2614/2712 02004KT P6SM SKC
      TEMPO 2614/2616 4SM BR
     FM261700 34008KT P6SM SKC
     FM262000 33013G20KT 6SM HZ SKC
     FM270000 34009KT 1SM BR OVC002
     FM270600 35004KT 5SM BR OVC006=

USA.gov is the U.S. government's official web portal to all federal, state and local government web resources and services.